Time;durP1;ratioP1;P1;durP2;ratioP2;P2;SDS_P1;SDS_P2;PMS_P1;PMS_P2;Temp;Humidity;BMP_temperature;BMP_pressure;BME280_temperature;BME280_humidity;BME280_pressure;Samples;Min_cycle;Max_cycle;Signal;HPM_P1;HPM_P2
2021/04/30 00:00:21;;;;;;;64.78;42.13;;;;;;;13.21;100.00;100973.88;5044250;28;20469;-74
2021/04/30 00:03:07;;;;;;;60.30;40.85;;;;;;;13.37;100.00;100964.72;5043783;28;20042;-74
2021/04/30 00:05:53;;;;;;;64.07;42.20;;;;;;;13.27;100.00;100958.81;5042953;28;20469;-74
2021/04/30 00:08:39;;;;;;;59.40;39.78;;;;;;;13.32;100.00;100977.13;5043364;28;20072;-74
2021/04/30 00:11:25;;;;;;;55.97;39.60;;;;;;;13.38;100.00;100987.53;5057649;28;20029;-73
2021/04/30 00:14:11;;;;;;;54.60;37.35;;;;;;;13.03;100.00;100985.69;5057602;28;20040;-74
2021/04/30 00:16:57;;;;;;;59.53;38.25;;;;;;;12.91;100.00;100996.47;5058417;28;20043;-74
2021/04/30 00:19:43;;;;;;;58.58;40.25;;;;;;;13.15;100.00;101006.47;5057612;28;20043;-74
2021/04/30 00:22:29;;;;;;;54.17;38.20;;;;;;;13.55;100.00;101001.13;5057617;28;20040;-74
2021/04/30 00:25:14;;;;;;;57.90;40.00;;;;;;;13.80;100.00;101002.22;5056903;28;20095;-73
2021/04/30 00:28:00;;;;;;;58.92;40.03;;;;;;;13.36;100.00;100989.31;5056601;28;20063;-74
2021/04/30 00:30:47;;;;;;;57.50;40.22;;;;;;;13.28;100.00;100991.25;5042966;28;20035;-73
2021/04/30 00:33:33;;;;;;;61.42;42.92;;;;;;;13.41;100.00;100980.41;5057149;28;20152;-73
2021/04/30 00:36:18;;;;;;;58.60;42.13;;;;;;;13.69;100.00;100985.81;5056580;28;20029;-74
2021/04/30 00:39:05;;;;;;;59.72;41.55;;;;;;;13.56;100.00;100985.28;5056983;28;20441;-74
2021/04/30 00:41:51;;;;;;;54.70;40.17;;;;;;;13.69;100.00;100999.00;5056964;28;20473;-74
2021/04/30 00:44:36;;;;;;;64.28;44.63;;;;;;;13.67;100.00;101004.28;5057678;28;20039;-74
2021/04/30 00:47:25;;;;;;;57.00;40.42;;;;;;;13.49;100.00;100996.00;5055864;28;20056;-73
2021/04/30 00:50:12;;;;;;;56.38;42.15;;;;;;;13.41;100.00;101000.56;5056465;28;20025;-73
2021/04/30 00:52:58;;;;;;;57.80;41.88;;;;;;;13.71;100.00;101010.34;5056257;28;20104;-74
2021/04/30 00:55:44;;;;;;;59.00;44.10;;;;;;;13.93;100.00;101006.25;5042430;28;20091;-74
2021/04/30 00:58:30;;;;;;;60.40;43.00;;;;;;;13.94;100.00;101006.22;5057569;28;20044;-74
2021/04/30 01:01:17;;;;;;;64.53;43.85;;;;;;;13.80;100.00;101012.75;5055791;28;20450;-73
2021/04/30 01:04:03;;;;;;;63.47;43.35;;;;;;;13.61;100.00;101011.47;5055905;28;20068;-74
2021/04/30 01:06:49;;;;;;;62.92;44.45;;;;;;;13.58;100.00;101012.41;5056927;28;20060;-73
2021/04/30 01:09:35;;;;;;;58.67;41.90;;;;;;;13.48;100.00;101013.56;5057115;28;20033;-73
2021/04/30 01:12:22;;;;;;;65.68;45.60;;;;;;;13.45;100.00;101008.38;5057119;28;20028;-74
2021/04/30 01:15:09;;;;;;;64.13;42.28;;;;;;;13.18;100.00;101009.03;5056724;28;20060;-73
2021/04/30 01:17:55;;;;;;;64.28;43.53;;;;;;;13.13;100.00;101010.91;5055758;28;20040;-73
2021/04/30 01:20:41;;;;;;;59.92;42.80;;;;;;;13.21;100.00;100992.28;5056050;28;20029;-74
2021/04/30 01:23:26;;;;;;;62.40;43.60;;;;;;;13.16;100.00;100996.81;5056040;28;20036;-74
2021/04/30 01:26:13;;;;;;;56.53;38.83;;;;;;;13.24;100.00;100977.31;5056270;28;20048;-73
2021/04/30 01:28:58;;;;;;;66.25;45.15;;;;;;;13.13;100.00;100987.22;5041949;28;20102;-74
2021/04/30 01:31:45;;;;;;;59.25;42.22;;;;;;;12.85;100.00;100993.97;5056268;28;20369;-74
2021/04/30 01:34:31;;;;;;;67.90;45.83;;;;;;;12.62;100.00;101001.50;5041590;28;20450;-74
2021/04/30 01:37:17;;;;;;;64.72;43.65;;;;;;;12.67;100.00;100997.03;5056301;28;20033;-74
2021/04/30 01:40:13;;;;;;;63.75;45.05;;;;;;;13.00;100.00;100993.69;5055724;28;20056;-73
2021/04/30 01:42:59;;;;;;;70.47;43.15;;;;;;;12.89;100.00;100994.78;5056057;28;20029;-74
2021/04/30 01:45:53;;;;;;;59.30;41.10;;;;;;;12.36;100.00;100995.06;5042032;28;20129;-74
2021/04/30 01:48:39;;;;;;;68.03;44.30;;;;;;;12.55;100.00;101001.66;5055978;28;20032;-74
2021/04/30 01:51:24;;;;;;;62.80;42.28;;;;;;;12.78;100.00;101002.06;5041848;28;20033;-73
2021/04/30 01:54:10;;;;;;;64.78;43.70;;;;;;;12.93;100.00;100978.03;5041084;28;20068;-73
2021/04/30 01:56:56;;;;;;;62.50;43.30;;;;;;;12.98;100.00;100984.09;5056318;28;20021;-74
2021/04/30 01:59:42;;;;;;;64.43;44.38;;;;;;;12.99;100.00;100994.56;5055917;28;20029;-74
2021/04/30 02:02:43;;;;;;;62.45;42.42;;;;;;;12.85;100.00;100985.22;5055880;28;20033;-74
2021/04/30 02:05:31;;;;;;;61.00;42.20;;;;;;;12.82;100.00;101001.94;5041658;28;20025;-74
2021/04/30 02:08:18;;;;;;;61.58;43.15;;;;;;;12.73;100.00;100989.00;5040418;28;20063;-73
2021/04/30 02:11:04;;;;;;;63.38;43.75;;;;;;;12.72;100.00;100995.16;5055947;28;20064;-74
2021/04/30 02:13:50;;;;;;;61.00;43.08;;;;;;;12.68;100.00;100996.13;5055348;28;20017;-74
2021/04/30 02:16:36;;;;;;;58.88;40.30;;;;;;;12.82;100.00;100993.19;5055934;28;20021;-73
2021/04/30 02:19:22;;;;;;;56.47;39.97;;;;;;;12.18;100.00;100998.06;5055499;28;20036;-74
2021/04/30 02:22:08;;;;;;;53.38;39.10;;;;;;;12.34;100.00;100992.44;5054484;28;20032;-74
2021/04/30 02:24:54;;;;;;;52.72;37.45;;;;;;;12.06;100.00;100993.88;5054244;28;20098;-74
2021/04/30 02:27:40;;;;;;;62.15;40.78;;;;;;;12.32;100.00;100998.63;5054308;28;20040;-74
2021/04/30 02:30:28;;;;;;;55.60;39.45;;;;;;;12.42;100.00;101001.03;5054303;28;20028;-74
2021/04/30 02:33:14;;;;;;;60.67;42.33;;;;;;;12.69;100.00;100994.34;5055390;28;20043;-74
2021/04/30 02:35:59;;;;;;;58.00;39.28;;;;;;;12.42;100.00;101001.03;5040767;28;20024;-73
2021/04/30 02:38:45;;;;;;;62.53;41.45;;;;;;;12.52;100.00;101028.00;5054434;28;20028;-73
2021/04/30 02:41:31;;;;;;;56.78;38.70;;;;;;;11.97;100.00;101007.19;5055392;28;20441;-74
2021/04/30 02:44:17;;;;;;;61.67;40.92;;;;;;;11.98;100.00;101026.47;5053963;28;20122;-74
2021/04/30 02:47:03;;;;;;;58.92;41.03;;;;;;;12.04;100.00;101023.69;5055016;28;20187;-74
2021/04/30 02:49:51;;;;;;;56.90;40.08;;;;;;;12.49;100.00;101034.19;5054811;28;20396;-73
2021/04/30 02:52:37;;;;;;;55.22;40.33;;;;;;;12.50;100.00;101035.06;5040699;28;20512;-73
2021/04/30 02:55:24;;;;;;;64.90;44.67;;;;;;;12.35;100.00;101051.13;5053568;28;20028;-74
2021/04/30 02:58:11;;;;;;;66.18;40.40;;;;;;;12.25;100.00;101041.69;5040040;28;20071;-74
2021/04/30 03:00:59;;;;;;;57.08;40.50;;;;;;;12.28;100.00;101054.75;5053555;28;20033;-74
2021/04/30 03:03:45;;;;;;;59.42;42.42;;;;;;;12.51;100.00;101058.69;5040044;28;20102;-74
2021/04/30 03:06:31;;;;;;;64.65;44.80;;;;;;;12.32;100.00;101066.94;5055012;28;20334;-73
2021/04/30 03:09:17;;;;;;;67.28;43.03;;;;;;;12.49;100.00;101080.63;5040345;28;20457;-74
2021/04/30 03:12:03;;;;;;;60.53;43.08;;;;;;;12.18;100.00;101072.47;5053967;28;20025;-74
2021/04/30 03:14:49;;;;;;;63.80;41.78;;;;;;;11.99;100.00;101078.94;5040376;28;20163;-74
2021/04/30 03:17:34;;;;;;;78.97;49.40;;;;;;;12.25;100.00;101083.72;5053656;28;20067;-74
2021/04/30 03:20:21;;;;;;;64.53;43.60;;;;;;;12.51;100.00;101079.72;5039998;28;20438;-74
2021/04/30 03:23:07;;;;;;;63.00;43.58;;;;;;;12.22;100.00;101071.50;5054239;28;20040;-74
2021/04/30 03:25:52;;;;;;;70.20;45.08;;;;;;;11.67;100.00;101049.75;5054329;28;20040;-74
2021/04/30 03:28:38;;;;;;;67.50;44.70;;;;;;;12.22;100.00;101062.78;5055402;28;20326;-73
2021/04/30 03:31:24;;;;;;;72.15;48.17;;;;;;;12.37;100.00;101073.84;5053137;28;20025;-74
2021/04/30 03:34:11;;;;;;;77.35;48.63;;;;;;;12.08;100.00;101068.28;5053689;28;20113;-74
2021/04/30 03:36:56;;;;;;;70.75;47.95;;;;;;;12.46;100.00;101067.56;5053708;28;20033;-73
2021/04/30 03:39:42;;;;;;;73.78;49.03;;;;;;;12.32;100.00;101072.19;5053933;28;20028;-74
2021/04/30 03:42:28;;;;;;;70.38;45.20;;;;;;;12.44;100.00;101071.97;5039732;28;20115;-74
2021/04/30 03:45:14;;;;;;;74.28;48.00;;;;;;;12.77;100.00;101082.69;5053207;28;20025;-74
2021/04/30 03:48:00;;;;;;;71.85;48.28;;;;;;;12.85;100.00;101088.66;5053107;28;20439;-74
2021/04/30 03:50:46;;;;;;;85.82;49.47;;;;;;;12.09;100.00;101084.91;5053148;28;20531;-74
2021/04/30 03:53:32;;;;;;;68.85;45.13;;;;;;;11.72;100.00;101087.28;5053876;28;20025;-75
2021/04/30 03:56:18;;;;;;;79.88;47.75;;;;;;;12.08;100.00;101080.53;5053979;28;20029;-75
2021/04/30 03:59:03;;;;;;;69.13;45.28;;;;;;;12.14;100.00;101088.31;5039862;28;20091;-74
2021/04/30 04:01:49;;;;;;;69.45;45.35;;;;;;;12.31;100.00;101089.75;5039185;28;20390;-74
2021/04/30 04:04:35;;;;;;;71.95;45.97;;;;;;;12.13;100.00;101087.44;5054631;28;20029;-74
2021/04/30 04:07:21;;;;;;;74.20;46.83;;;;;;;12.25;100.00;101096.84;5052728;28;20029;-74
2021/04/30 04:10:07;;;;;;;72.50;46.00;;;;;;;12.51;100.00;101095.50;5053301;28;20036;-75
2021/04/30 04:12:53;;;;;;;66.93;44.72;;;;;;;12.82;100.00;101096.59;5052595;28;20107;-75
2021/04/30 04:15:39;;;;;;;68.82;45.85;;;;;;;12.96;100.00;101107.72;5052200;28;20433;-74
2021/04/30 04:18:25;;;;;;;66.22;44.15;;;;;;;13.12;100.00;101105.63;5057759;28;20102;-73
2021/04/30 04:21:11;;;;;;;69.53;45.45;;;;;;;13.31;100.00;101107.81;5057715;28;20021;-74
2021/04/30 04:23:57;;;;;;;66.40;45.15;;;;;;;13.41;100.00;101111.13;5056493;28;20033;-74
2021/04/30 04:26:42;;;;;;;61.70;41.70;;;;;;;13.35;100.00;101112.13;5056850;28;20028;-74
2021/04/30 04:29:28;;;;;;;56.55;39.00;;;;;;;13.00;100.00;101105.91;5056879;28;20028;-74
2021/04/30 04:32:14;;;;;;;59.55;41.00;;;;;;;13.05;100.00;101118.06;5042210;28;20037;-74
2021/04/30 04:35:00;;;;;;;57.42;38.35;;;;;;;13.20;100.00;101130.03;5056904;28;20052;-75
2021/04/30 04:37:45;;;;;;;60.72;40.15;;;;;;;13.38;100.00;101127.00;5056168;28;20441;-74
2021/04/30 04:40:31;;;;;;;62.20;42.83;;;;;;;13.22;100.00;101133.50;5057730;28;20029;-75
2021/04/30 04:43:17;;;;;;;56.03;39.60;;;;;;;13.37;100.00;101136.66;5056004;28;20036;-74
2021/04/30 04:46:03;;;;;;;53.28;38.47;;;;;;;12.81;100.00;101131.69;5057182;28;20083;-75
2021/04/30 04:48:49;;;;;;;53.67;36.50;;;;;;;12.83;100.00;101135.13;5057200;28;20043;-74
2021/04/30 04:51:34;;;;;;;54.10;36.72;;;;;;;13.43;100.00;101143.56;5056042;28;20021;-74
2021/04/30 04:54:21;;;;;;;51.10;36.53;;;;;;;13.38;100.00;101145.44;5055967;28;20449;-75
2021/04/30 04:57:07;;;;;;;55.08;37.13;;;;;;;13.27;100.00;101139.53;5057359;28;20025;-75
2021/04/30 04:59:53;;;;;;;57.55;38.28;;;;;;;13.31;100.00;101141.19;5057076;28;20056;-74
2021/04/30 05:02:39;;;;;;;55.65;38.80;;;;;;;13.59;100.00;101150.22;5056483;28;20024;-74
2021/04/30 05:05:29;;;;;;;53.85;38.35;;;;;;;13.58;100.00;101148.44;5057137;28;20035;-75
2021/04/30 05:08:14;;;;;;;59.85;40.40;;;;;;;13.54;100.00;101152.94;5055731;28;20489;-74
2021/04/30 05:11:00;;;;;;;52.70;37.55;;;;;;;13.72;100.00;101152.53;5056890;28;20025;-75
2021/04/30 05:13:46;;;;;;;55.55;36.72;;;;;;;13.76;100.00;101177.00;5041978;28;20037;-75
2021/04/30 05:16:32;;;;;;;50.38;35.03;;;;;;;13.70;100.00;101166.59;5055912;28;20017;-74
2021/04/30 05:19:18;;;;;;;49.55;32.35;;;;;;;13.96;100.00;101167.75;5042072;28;20029;-75
2021/04/30 05:22:10;;;;;;;41.67;29.25;;;;;;;14.05;100.00;101174.53;5056842;28;20021;-75
2021/04/30 05:24:56;;;;;;;39.90;28.52;;;;;;;14.06;100.00;101174.50;5056275;28;20052;-76
2021/04/30 05:27:43;;;;;;;39.72;27.73;;;;;;;14.25;100.00;101169.69;5055166;28;20021;-77
2021/04/30 05:30:28;;;;;;;40.80;28.25;;;;;;;14.34;100.00;101169.44;5055417;28;20361;-74
2021/04/30 05:33:15;;;;;;;45.72;30.27;;;;;;;14.07;100.00;101175.38;5055486;28;20025;-74
2021/04/30 05:36:00;;;;;;;41.22;29.33;;;;;;;13.89;100.00;101168.78;5056200;28;20095;-76
2021/04/30 05:38:46;;;;;;;41.15;29.38;;;;;;;13.33;100.00;101181.47;5055078;28;20029;-75
2021/04/30 05:41:32;;;;;;;43.17;28.75;;;;;;;13.05;100.00;101180.31;5055001;28;20033;-75
2021/04/30 05:44:18;;;;;;;43.42;29.42;;;;;;;13.54;100.00;101189.78;5041150;28;20029;-77
2021/04/30 05:47:04;;;;;;;41.35;29.25;;;;;;;13.47;100.00;101190.81;5055786;28;20049;-76
2021/04/30 05:49:50;;;;;;;42.35;30.40;;;;;;;13.87;100.00;101202.19;5056087;28;20028;-76
2021/04/30 05:52:36;;;;;;;43.13;29.38;;;;;;;13.77;100.00;101189.25;5054922;28;20148;-75
2021/04/30 05:55:22;;;;;;;46.45;31.13;;;;;;;13.70;100.00;101191.19;5054526;28;20021;-76
2021/04/30 05:58:07;;;;;;;41.92;29.10;;;;;;;14.40;100.00;101191.22;5054743;28;20527;-75
2021/04/30 06:00:53;;;;;;;35.92;28.00;;;;;;;14.70;100.00;101182.53;5041218;28;20037;-76
2021/04/30 06:03:39;;;;;;;43.90;27.92;;;;;;;14.67;100.00;101179.97;5055852;28;20032;-74
2021/04/30 06:06:25;;;;;;;39.20;26.83;;;;;;;13.93;100.00;101183.63;5055618;28;20036;-76
2021/04/30 06:09:11;;;;;;;37.15;26.13;;;;;;;14.55;100.00;101182.94;5041711;28;20098;-74
2021/04/30 06:11:57;;;;;;;43.45;28.95;;;;;;;14.99;100.00;101188.78;5055177;28;20108;-74
2021/04/30 06:14:42;;;;;;;39.92;28.73;;;;;;;14.61;100.00;101198.63;5040789;28;20029;-73
2021/04/30 06:17:28;;;;;;;40.90;29.05;;;;;;;14.58;100.00;101200.44;5054645;28;20036;-74
2021/04/30 06:20:14;;;;;;;36.63;27.40;;;;;;;14.27;100.00;101204.78;5055104;28;20040;-74
2021/04/30 06:23:00;;;;;;;37.33;27.23;;;;;;;14.60;100.00;101206.56;5054552;28;20087;-75
2021/04/30 06:25:46;;;;;;;34.03;25.67;;;;;;;15.00;100.00;101198.44;5040199;28;20120;-74
2021/04/30 06:28:32;;;;;;;39.08;27.20;;;;;;;14.28;100.00;101212.63;5055655;28;20033;-74
2021/04/30 06:31:18;;;;;;;34.45;26.13;;;;;;;14.19;100.00;101220.72;5054915;28;20502;-73
2021/04/30 06:34:04;;;;;;;42.97;27.60;;;;;;;14.43;100.00;101225.44;5055121;28;20131;-74
2021/04/30 06:36:53;;;;;;;41.40;26.50;;;;;;;14.39;100.00;101228.22;5055149;28;20016;-74
2021/04/30 06:39:39;;;;;;;40.30;26.25;;;;;;;14.54;100.00;101212.84;5054609;28;20044;-74
2021/04/30 06:42:25;;;;;;;39.78;26.77;;;;;;;14.21;100.00;101220.72;5054730;28;20112;-75
2021/04/30 06:45:11;;;;;;;36.50;25.25;;;;;;;14.16;100.00;101226.06;5054090;28;20020;-75
2021/04/30 06:47:57;;;;;;;35.33;26.10;;;;;;;14.79;100.00;101213.06;5056849;28;20041;-74
2021/04/30 06:50:43;;;;;;;36.67;26.65;;;;;;;14.39;100.00;101209.75;5056640;28;20025;-74
2021/04/30 06:53:28;;;;;;;37.83;27.25;;;;;;;14.76;100.00;101216.66;5053837;28;20530;-74
2021/04/30 06:56:14;;;;;;;37.72;25.60;;;;;;;14.73;100.00;101221.16;5039956;28;20028;-74
2021/04/30 06:59:00;;;;;;;36.33;26.73;;;;;;;14.79;100.00;101221.84;5055296;28;20060;-74
2021/04/30 07:01:46;;;;;;;42.00;26.45;;;;;;;15.19;100.00;101226.06;5054510;28;20024;-74
2021/04/30 07:04:32;;;;;;;37.40;26.02;;;;;;;15.05;100.00;101228.19;5040650;28;20029;-74
2021/04/30 07:07:17;;;;;;;34.47;26.38;;;;;;;15.42;100.00;101224.50;5053932;28;20033;-75
2021/04/30 07:10:04;;;;;;;36.35;25.38;;;;;;;15.15;100.00;101219.97;5054863;28;20051;-73
2021/04/30 07:12:50;;;;;;;34.53;25.70;;;;;;;15.56;100.00;101213.53;5054661;28;20115;-75
2021/04/30 07:15:36;;;;;;;36.47;26.95;;;;;;;16.56;100.00;101210.28;5054045;28;20095;-73
2021/04/30 07:18:22;;;;;;;35.30;25.63;;;;;;;16.56;100.00;101228.81;5053989;28;20460;-74
2021/04/30 07:21:09;;;;;;;35.92;26.48;;;;;;;15.89;100.00;101216.03;5040032;28;20147;-76
2021/04/30 07:23:54;;;;;;;36.28;26.75;;;;;;;15.85;100.00;101213.50;5054163;28;20084;-76
2021/04/30 07:26:40;;;;;;;35.80;27.13;;;;;;;15.94;100.00;101211.44;5039230;28;20468;-75
2021/04/30 07:29:26;;;;;;;37.00;28.25;;;;;;;17.03;100.00;101200.69;5054346;28;20043;-76
2021/04/30 07:32:12;;;;;;;34.83;25.23;;;;;;;17.00;100.00;101203.47;5053892;28;20124;-74
2021/04/30 07:35:00;;;;;;;36.78;26.20;;;;;;;16.32;100.00;101197.84;5054351;28;20029;-74
2021/04/30 07:37:46;;;;;;;34.67;24.10;;;;;;;16.21;100.00;101205.28;5052974;28;20099;-74
2021/04/30 07:40:32;;;;;;;33.80;24.10;;;;;;;16.51;100.00;101206.94;5053501;28;20088;-74
2021/04/30 07:43:18;;;;;;;31.88;22.27;;;;;;;16.50;100.00;101201.69;5053660;28;20040;-75
2021/04/30 07:46:04;;;;;;;32.40;22.52;;;;;;;17.59;100.00;101216.25;5032822;28;20049;-75
2021/04/30 07:48:50;;;;;;;35.08;24.48;;;;;;;15.93;100.00;101214.13;5018611;28;20048;-75
2021/04/30 07:51:39;;;;;;;34.55;24.05;;;;;;;17.11;100.00;101214.50;5035309;28;20025;-74
2021/04/30 07:54:25;;;;;;;32.22;23.60;;;;;;;17.92;100.00;101212.28;5036599;28;20057;-76
2021/04/30 07:57:11;;;;;;;32.50;21.35;;;;;;;16.48;100.00;101204.38;5036853;28;20037;-75
2021/04/30 07:59:56;;;;;;;30.33;21.42;;;;;;;16.96;100.00;101207.97;5036320;28;20029;-74
2021/04/30 08:02:42;;;;;;;28.58;20.58;;;;;;;17.10;100.00;101208.38;5022880;28;20359;-73
2021/04/30 08:05:28;;;;;;;28.73;20.92;;;;;;;16.65;100.00;101202.06;5036497;28;20041;-73
2021/04/30 08:08:15;;;;;;;34.80;22.75;;;;;;;17.16;100.00;101207.28;5035829;28;20095;-74
2021/04/30 08:11:01;;;;;;;32.15;21.38;;;;;;;16.73;100.00;101207.06;5036232;28;20084;-74
2021/04/30 08:13:47;;;;;;;33.22;21.60;;;;;;;16.95;100.00;101206.25;5036484;28;20030;-74
2021/04/30 08:16:34;;;;;;;32.72;21.63;;;;;;;17.17;100.00;101206.34;5037821;28;20041;-75
2021/04/30 08:19:20;;;;;;;32.92;22.73;;;;;;;17.12;100.00;101206.50;5022615;28;20350;-73
2021/04/30 08:22:07;;;;;;;36.00;23.75;;;;;;;17.06;100.00;101212.03;5036482;28;20090;-74
2021/04/30 08:24:53;;;;;;;35.40;24.10;;;;;;;17.17;100.00;101211.66;5037280;28;20083;-74
2021/04/30 08:27:39;;;;;;;36.38;25.73;;;;;;;17.18;100.00;101206.28;5036405;28;20120;-74
2021/04/30 08:30:25;;;;;;;37.22;24.05;;;;;;;17.58;100.00;101205.69;5037008;28;20083;-74
2021/04/30 08:33:11;;;;;;;37.85;24.02;;;;;;;18.22;100.00;101188.97;5037116;28;20025;-74
2021/04/30 08:35:56;;;;;;;34.75;24.40;;;;;;;18.54;100.00;101188.50;5035307;28;20041;-74
2021/04/30 08:38:43;;;;;;;31.63;24.80;;;;;;;18.43;100.00;101188.97;5034904;28;20021;-74
2021/04/30 08:41:30;;;;;;;35.10;23.88;;;;;;;18.50;100.00;101195.75;5036664;28;20033;-75
2021/04/30 08:44:16;;;;;;;33.20;24.33;;;;;;;18.45;100.00;101210.13;5035837;28;20108;-75
2021/04/30 08:47:01;;;;;;;32.42;25.20;;;;;;;18.45;100.00;101187.09;5035518;28;20151;-75
2021/04/30 08:49:52;;;;;;;34.60;23.92;;;;;;;18.45;100.00;101186.25;5041900;28;20033;-75
2021/04/30 08:52:38;;;;;;;33.10;23.48;;;;;;;19.24;100.00;101189.81;5055403;28;20035;-75
2021/04/30 08:55:25;;;;;;;38.22;23.60;;;;;;;19.93;100.00;101186.50;5042106;28;20028;-75
2021/04/30 08:58:10;;;;;;;33.75;24.30;;;;;;;19.77;100.00;101176.69;5056567;28;20091;-75
2021/04/30 09:00:56;;;;;;;29.83;22.63;;;;;;;19.82;100.00;101180.00;5041418;28;20116;-75
2021/04/30 09:03:42;;;;;;;33.30;24.02;;;;;;;19.69;100.00;101189.50;5055145;28;20509;-76
2021/04/30 09:06:39;;;;;;;32.30;24.58;;;;;;;19.81;100.00;101186.25;5041522;28;20458;-75
2021/04/30 09:09:25;;;;;;;32.75;24.52;;;;;;;19.44;100.00;101181.78;5055210;28;20025;-74
2021/04/30 09:12:15;;;;;;;34.22;23.75;;;;;;;19.54;100.00;101193.75;5054868;28;20457;-75
2021/04/30 09:15:01;;;;;;;34.60;24.13;;;;;;;18.50;100.00;101181.59;5056142;28;20060;-74
2021/04/30 09:17:47;;;;;;;32.20;23.27;;;;;;;19.02;100.00;101183.72;5055405;28;20025;-75
2021/04/30 09:20:39;;;;;;;31.98;23.40;;;;;;;19.97;100.00;101169.47;5054435;28;20473;-74
2021/04/30 09:23:39;;;;;;;34.65;22.40;;;;;;;19.92;100.00;101178.59;5041413;28;20468;-73
2021/04/30 09:26:30;;;;;;;31.15;22.95;;;;;;;20.02;100.00;101174.56;5041011;28;20024;-75
2021/04/30 09:29:15;;;;;;;31.15;23.83;;;;;;;20.47;100.00;101182.97;5056561;28;20029;-75
2021/04/30 09:32:03;;;;;;;33.00;22.98;;;;;;;20.51;100.00;101177.41;5054100;28;20025;-73
2021/04/30 09:34:54;;;;;;;28.98;22.02;;;;;;;19.68;100.00;101180.63;5055831;28;20098;-74
2021/04/30 09:37:41;;;;;;;30.75;22.50;;;;;;;20.29;100.00;101179.41;5055405;28;20087;-74
2021/04/30 09:40:31;;;;;;;32.05;21.83;;;;;;;20.59;100.00;101174.34;5041152;28;20025;-74
2021/04/30 09:43:19;;;;;;;33.05;22.20;;;;;;;20.71;100.00;101169.25;5054405;28;20033;-74
2021/04/30 09:46:24;;;;;;;34.47;22.83;;;;;;;20.73;100.00;101161.19;5021463;28;20048;-73
2021/04/30 09:49:15;;;;;;;29.45;23.52;;;;;;;20.24;100.00;101159.28;5034640;28;20052;-73
2021/04/30 09:52:03;;;;;;;31.10;23.90;;;;;;;20.44;100.00;101140.50;5035062;28;20124;-74
2021/04/30 09:54:50;;;;;;;33.78;24.10;;;;;;;20.09;100.00;101152.94;5034669;28;20484;-73
2021/04/30 09:57:36;;;;;;;27.65;21.83;;;;;;;20.40;100.00;101161.09;5034666;28;20026;-74
2021/04/30 10:00:22;;;;;;;30.50;22.17;;;;;;;20.22;100.00;101155.84;5021320;28;20127;-74
2021/04/30 10:03:12;;;;;;;29.90;22.50;;;;;;;20.44;100.00;101151.16;5034833;28;20036;-76
2021/04/30 10:06:15;;;;;;;31.55;22.98;;;;;;;20.56;100.00;101145.22;5020324;28;20357;-74
2021/04/30 10:09:09;;;;;;;31.02;23.67;;;;;;;20.04;100.00;101123.00;5035066;28;20025;-75
2021/04/30 10:11:56;;;;;;;31.70;22.52;;;;;;;20.59;100.00;101132.63;5035028;28;20025;-77
2021/04/30 10:14:43;;;;;;;29.33;22.27;;;;;;;20.61;100.00;101128.06;5033999;28;20049;-75
2021/04/30 10:17:29;;;;;;;29.45;21.70;;;;;;;20.80;100.00;101126.16;5034765;28;20028;-75
2021/04/30 10:20:16;;;;;;;30.77;22.67;;;;;;;20.65;100.00;101118.13;5020954;28;20029;-76
2021/04/30 10:23:07;;;;;;;31.33;21.95;;;;;;;20.79;100.00;101119.13;5034488;28;20347;-75
2021/04/30 10:25:53;;;;;;;34.10;24.55;;;;;;;20.55;100.00;101115.06;5019900;28;20370;-76
2021/04/30 10:28:44;;;;;;;30.25;21.75;;;;;;;20.19;100.00;101111.63;5020705;28;20030;-74
2021/04/30 10:31:33;;;;;;;31.38;22.10;;;;;;;21.15;100.00;101113.63;5020267;28;20033;-76
2021/04/30 10:34:25;;;;;;;28.90;21.35;;;;;;;21.47;100.00;101108.25;5034435;28;20037;-76
2021/04/30 10:37:13;;;;;;;29.35;21.63;;;;;;;21.19;100.00;101121.41;5034192;28;20096;-76
2021/04/30 10:40:01;;;;;;;32.55;22.02;;;;;;;20.88;100.00;101117.75;5034423;28;20025;-75
2021/04/30 10:42:47;;;;;;;32.35;21.98;;;;;;;21.45;100.00;101107.47;5033920;28;20037;-76
2021/04/30 10:45:33;;;;;;;32.40;21.73;;;;;;;21.25;100.00;101110.38;5033768;28;20104;-76
2021/04/30 10:48:18;;;;;;;32.75;22.83;;;;;;;21.44;100.00;101100.44;5020186;28;20043;-76
2021/04/30 10:51:15;;;;;;;36.25;24.70;;;;;;;21.87;100.00;101105.06;5034110;28;20032;-76
2021/04/30 10:54:30;;;;;;;41.63;25.77;;;;;;;21.68;100.00;101101.72;5033559;28;20029;-75
2021/04/30 10:57:20;;;;;;;25.77;20.25;;;;;;;22.41;100.00;101104.50;5034248;28;20362;-75
2021/04/30 11:00:07;;;;;;;48.20;28.73;;;;;;;22.66;100.00;101098.53;5034185;28;20509;-75
2021/04/30 11:03:18;;;;;;;30.30;20.67;;;;;;;22.62;100.00;101102.34;5034231;28;20359;-75
2021/04/30 11:06:05;;;;;;;24.63;18.80;;;;;;;22.39;100.00;101093.03;5020005;28;20021;-75
2021/04/30 11:08:54;;;;;;;26.20;19.30;;;;;;;22.80;100.00;101101.25;5019902;28;20033;-75
2021/04/30 11:11:44;;;;;;;28.60;19.77;;;;;;;22.38;100.00;101098.50;5034142;28;20438;-75
2021/04/30 11:14:35;;;;;;;29.58;20.48;;;;;;;21.57;100.00;101085.44;5033310;28;20033;-75
2021/04/30 11:17:55;;;;;;;28.33;19.40;;;;;;;22.33;100.00;101082.72;5034441;28;20168;-75
2021/04/30 11:20:42;;;;;;;27.40;20.70;;;;;;;22.73;100.00;101089.22;5018963;28;20021;-76
2021/04/30 11:23:39;;;;;;;29.45;20.13;;;;;;;23.55;100.00;101083.06;5033426;28;20088;-76
2021/04/30 11:26:35;;;;;;;26.30;20.35;;;;;;;23.40;100.00;101082.22;5035801;28;20026;-76
2021/04/30 11:29:30;;;;;;;26.73;19.60;;;;;;;23.24;100.00;101077.97;5038275;28;20033;-76
2021/04/30 11:32:23;;;;;;;25.58;17.60;;;;;;;22.94;100.00;101083.41;5037265;28;20100;-75
2021/04/30 11:35:12;;;;;;;23.55;17.42;;;;;;;23.19;100.00;101070.19;5037384;28;20021;-76
2021/04/30 11:37:58;;;;;;;25.35;17.13;;;;;;;23.59;100.00;101075.69;5023365;28;20021;-75
2021/04/30 11:40:44;;;;;;;22.95;17.20;;;;;;;23.32;100.00;101063.13;5037581;28;20136;-75
2021/04/30 11:43:30;;;;;;;22.42;17.08;;;;;;;23.75;100.00;101052.31;5037174;28;20103;-75
2021/04/30 11:46:16;;;;;;;22.90;16.88;;;;;;;24.05;100.00;101059.19;5045004;28;20480;-75
2021/04/30 11:49:03;;;;;;;21.40;15.43;;;;;;;23.99;100.00;101050.72;5043880;28;20104;-75
2021/04/30 11:51:49;;;;;;;23.00;15.88;;;;;;;24.53;100.00;101060.31;5043515;28;20039;-76
2021/04/30 11:54:36;;;;;;;20.95;16.27;;;;;;;24.36;100.00;101053.47;5057714;28;20372;-76
2021/04/30 11:57:22;;;;;;;24.05;14.70;;;;;;;24.39;100.00;101039.84;5058435;28;20414;-76
2021/04/30 12:00:11;;;;;;;19.38;14.82;;;;;;;24.55;100.00;101047.69;5043818;28;20028;-77
2021/04/30 12:03:06;;;;;;;24.85;14.32;;;;;;;24.78;100.00;101041.56;5043587;28;20035;-76
2021/04/30 12:05:53;;;;;;;20.17;13.95;;;;;;;25.42;100.00;101028.81;5042715;28;20446;-76
2021/04/30 12:08:44;;;;;;;18.92;14.73;;;;;;;24.90;100.00;101033.53;5056883;28;20032;-75
2021/04/30 12:11:35;;;;;;;20.92;13.68;;;;;;;24.74;100.00;101022.19;5057160;28;20170;-76
2021/04/30 12:14:21;;;;;;;16.77;13.35;;;;;;;25.03;100.00;101020.13;5056416;28;20051;-76
2021/04/30 12:17:07;;;;;;;15.98;12.57;;;;;;;25.50;100.00;101017.50;5042975;28;20025;-75
2021/04/30 12:20:06;;;;;;;19.77;13.88;;;;;;;25.52;100.00;101020.94;5057626;28;20024;-76
2021/04/30 12:23:00;;;;;;;21.20;14.65;;;;;;;25.52;100.00;101011.03;5044252;28;20029;-75
2021/04/30 12:25:48;;;;;;;21.85;13.63;;;;;;;25.61;100.00;101013.06;5057459;28;20044;-74
2021/04/30 12:28:34;;;;;;;16.65;12.25;;;;;;;25.24;100.00;101008.66;5058059;28;20529;-74
2021/04/30 12:31:20;;;;;;;20.50;13.70;;;;;;;25.44;100.00;101000.03;5042768;28;20036;-73